Time;durP1;ratioP1;P1;durP2;ratioP2;P2;SDS_P1;SDS_P2;PMS_P1;PMS_P2;Temp;Humidity;BMP_temperature;BMP_pressure;BME280_temperature;BME280_humidity;BME280_pressure;Samples;Min_cycle;Max_cycle;Signal;HPM_P1;HPM_P2
2023/11/15 00:01:08;;;;;;;;;;;15.30;93.00;;;;;;4043555;29;19973;-44
2023/11/15 00:03:49;;;;;;;;;;;15.30;92.60;;;;;;4032528;29;19934;-44
2023/11/15 00:06:30;;;;;;;;;;;15.30;92.60;;;;;;4044817;29;20402;-44
2023/11/15 00:09:12;;;;;;;;;;;15.30;92.70;;;;;;4043730;29;19954;-44
2023/11/15 00:11:53;;;;;;;;;;;15.30;92.70;;;;;;4028746;29;19938;-44
2023/11/15 00:14:37;;;;;;;;;;;15.30;92.70;;;;;;4028228;29;19935;-44
2023/11/15 00:17:19;;;;;;;;;;;15.20;92.70;;;;;;4018323;29;19942;-44
2023/11/15 00:20:03;;;;;;;;;;;15.20;92.70;;;;;;4043107;29;20010;-44
2023/11/15 00:22:44;;;;;;;;;;;15.20;92.70;;;;;;4043776;29;19983;-44
2023/11/15 00:25:25;;;;;;;;;;;15.20;92.70;;;;;;4034400;29;20026;-44
2023/11/15 00:28:05;;;;;;;;;;;15.20;92.70;;;;;;4028102;29;19935;-43
2023/11/15 00:30:46;;;;;;;;;;;15.20;92.70;;;;;;4020191;29;19935;-44
2023/11/15 00:33:28;;;;;;;;;;;15.20;93.10;;;;;;4017248;29;20068;-44
2023/11/15 00:36:11;;;;;;;;;;;15.20;92.70;;;;;;4028036;29;20027;-44
2023/11/15 00:38:52;;;;;;;;;;;15.20;92.80;;;;;;4015754;29;20311;-44
2023/11/15 00:41:33;;;;;;;;;;;15.20;92.80;;;;;;4005436;29;19974;-43
2023/11/15 00:44:16;;;;;;;;;;;15.20;92.80;;;;;;4015599;29;20292;-44
2023/11/15 00:46:57;;;;;;;;;;;15.20;92.80;;;;;;4015954;29;20493;-44
2023/11/15 00:49:40;;;;;;;;;;;15.20;92.80;;;;;;4006395;29;19934;-43
2023/11/15 00:52:21;;;;;;;;;;;15.10;92.80;;;;;;4041703;29;19934;-43
2023/11/15 00:55:02;;;;;;;;;;;15.10;93.20;;;;;;4020942;29;20029;-43
2023/11/15 00:57:44;;;;;;;;;;;15.10;92.80;;;;;;4031740;29;19938;-43
2023/11/15 01:00:26;;;;;;;;;;;15.10;92.80;;;;;;4043053;29;19935;-45
2023/11/15 01:03:07;;;;;;;;;;;15.20;92.90;;;;;;4042999;29;19934;-43
2023/11/15 01:05:50;;;;;;;;;;;15.20;92.90;;;;;;4028068;29;19934;-43
2023/11/15 01:08:30;;;;;;;;;;;15.30;92.80;;;;;;4028139;29;19963;-44
2023/11/15 01:11:12;;;;;;;;;;;15.30;93.00;;;;;;4042189;29;20071;-45
2023/11/15 01:13:53;;;;;;;;;;;15.40;92.50;;;;;;4042583;29;19939;-45
2023/11/15 01:16:35;;;;;;;;;;;15.40;92.40;;;;;;4030989;29;20295;-45
2023/11/15 01:19:16;;;;;;;;;;;15.40;92.40;;;;;;4043008;29;20378;-45
2023/11/15 01:21:58;;;;;;;;;;;15.50;92.40;;;;;;4021774;29;19935;-45
2023/11/15 01:24:41;;;;;;;;;;;15.40;92.30;;;;;;4028292;29;19939;-44
2023/11/15 01:27:22;;;;;;;;;;;15.40;92.30;;;;;;4017709;29;20123;-44
2023/11/15 01:30:03;;;;;;;;;;;15.50;92.40;;;;;;4026260;29;20363;-44
2023/11/15 01:32:44;;;;;;;;;;;15.50;92.40;;;;;;4026868;29;19942;-44
2023/11/15 01:35:26;;;;;;;;;;;15.50;92.60;;;;;;4015139;29;19935;-44
2023/11/15 01:38:08;;;;;;;;;;;15.60;92.10;;;;;;4015393;29;19938;-44
2023/11/15 01:40:49;;;;;;;;;;;15.70;92.00;;;;;;4028027;29;20062;-45
2023/11/15 01:43:30;;;;;;;;;;;15.70;92.00;;;;;;4015949;29;19934;-45
2023/11/15 01:46:12;;;;;;;;;;;15.70;92.00;;;;;;4015382;29;19935;-44
2023/11/15 01:48:52;;;;;;;;;;;15.70;92.00;;;;;;4041971;29;20018;-45
2023/11/15 01:51:33;;;;;;;;;;;15.70;91.80;;;;;;4030959;29;20386;-45
2023/11/15 01:54:15;;;;;;;;;;;15.80;91.70;;;;;;4042825;29;19953;-45
2023/11/15 01:56:56;;;;;;;;;;;15.90;91.70;;;;;;4015020;29;19970;-45
2023/11/15 01:59:37;;;;;;;;;;;15.90;92.00;;;;;;4015483;29;19935;-45
2023/11/15 02:02:19;;;;;;;;;;;15.90;91.50;;;;;;4015220;29;19939;-45
2023/11/15 02:05:00;;;;;;;;;;;15.90;91.50;;;;;;4015246;29;20284;-45
2023/11/15 02:07:41;;;;;;;;;;;16.00;91.50;;;;;;4026244;29;20059;-45
2023/11/15 02:10:24;;;;;;;;;;;16.00;91.50;;;;;;4015387;29;19935;-45
2023/11/15 02:13:05;;;;;;;;;;;16.00;91.40;;;;;;4026720;29;19939;-45
2023/11/15 02:15:46;;;;;;;;;;;16.10;91.30;;;;;;4026954;29;19955;-45
2023/11/15 02:18:26;;;;;;;;;;;16.10;91.20;;;;;;4014374;29;19946;-45
2023/11/15 02:21:09;;;;;;;;;;;16.10;91.10;;;;;;4021383;29;19939;-45
2023/11/15 02:23:52;;;;;;;;;;;16.10;91.10;;;;;;4041321;29;20007;-45
2023/11/15 02:26:32;;;;;;;;;;;16.10;91.20;;;;;;4041532;29;20481;-45
2023/11/15 02:29:13;;;;;;;;;;;16.10;91.20;;;;;;4041652;29;20450;-45
2023/11/15 02:31:54;;;;;;;;;;;16.10;91.20;;;;;;4030172;29;19938;-45
2023/11/15 02:34:34;;;;;;;;;;;16.20;91.10;;;;;;4026953;29;19947;-45
2023/11/15 02:37:15;;;;;;;;;;;16.10;91.00;;;;;;4029349;29;19939;-45
2023/11/15 02:40:01;;;;;;;;;;;16.10;91.10;;;;;;4029543;29;19978;-45
2023/11/15 02:42:41;;;;;;;;;;;16.20;91.10;;;;;;4033271;29;19934;-45
2023/11/15 02:45:22;;;;;;;;;;;16.20;90.90;;;;;;4044100;29;20033;-45
2023/11/15 02:48:04;;;;;;;;;;;16.30;90.90;;;;;;4021890;29;19948;-45
2023/11/15 02:50:44;;;;;;;;;;;16.20;90.80;;;;;;4041542;29;20060;-45
2023/11/15 02:53:25;;;;;;;;;;;16.30;90.80;;;;;;4018679;29;19938;-45
2023/11/15 02:56:08;;;;;;;;;;;16.20;90.80;;;;;;4024587;29;19935;-54
2023/11/15 02:58:48;;;;;;;;;;;16.20;90.80;;;;;;4018682;29;19950;-57
2023/11/15 03:01:29;;;;;;;;;;;16.30;90.80;;;;;;4029383;29;19991;-54
2023/11/15 03:04:10;;;;;;;;;;;16.30;90.70;;;;;;4030541;29;20619;-55
2023/11/15 03:06:51;;;;;;;;;;;16.40;90.70;;;;;;4029858;29;19995;-52
2023/11/15 03:09:32;;;;;;;;;;;16.40;90.60;;;;;;4018549;29;19939;-50
2023/11/15 03:12:14;;;;;;;;;;;16.40;90.60;;;;;;4030214;29;20538;-51
2023/11/15 03:14:55;;;;;;;;;;;16.40;90.60;;;;;;4030142;29;19939;-51
2023/11/15 03:17:37;;;;;;;;;;;16.30;90.60;;;;;;4029516;29;19935;-50
2023/11/15 03:20:18;;;;;;;;;;;16.30;90.60;;;;;;4032461;29;19977;-50
2023/11/15 03:22:59;;;;;;;;;;;16.20;91.10;;;;;;4013468;29;20340;-52
2023/11/15 03:25:40;;;;;;;;;;;16.20;90.80;;;;;;4029745;29;20047;-51
2023/11/15 03:28:22;;;;;;;;;;;16.10;90.80;;;;;;4017754;29;19934;-50
2023/11/15 03:31:03;;;;;;;;;;;16.10;90.90;;;;;;4017908;29;19954;-51
2023/11/15 03:33:47;;;;;;;;;;;16.10;91.00;;;;;;4029260;29;19987;-50
2023/11/15 03:36:28;;;;;;;;;;;16.10;91.10;;;;;;4017448;29;20426;-51
2023/11/15 03:39:09;;;;;;;;;;;16.10;91.10;;;;;;4031327;29;19935;-54
2023/11/15 03:41:51;;;;;;;;;;;16.20;91.00;;;;;;4043546;29;20291;-52
2023/11/15 03:44:33;;;;;;;;;;;16.20;90.90;;;;;;4032883;29;20014;-54
2023/11/15 03:47:14;;;;;;;;;;;16.30;90.80;;;;;;4028343;29;19938;-55
2023/11/15 03:49:54;;;;;;;;;;;16.30;90.70;;;;;;4029208;29;19987;-51
2023/11/15 03:52:36;;;;;;;;;;;16.20;90.70;;;;;;4016201;29;19943;-57
2023/11/15 03:55:16;;;;;;;;;;;16.20;90.70;;;;;;4031257;29;20307;-58
2023/11/15 03:57:57;;;;;;;;;;;16.20;90.80;;;;;;4029431;29;19939;-57
2023/11/15 04:00:39;;;;;;;;;;;16.20;90.80;;;;;;4016134;29;20299;-58
2023/11/15 04:03:20;;;;;;;;;;;16.30;90.80;;;;;;4029269;29;20482;-59
2023/11/15 04:06:03;;;;;;;;;;;16.30;90.70;;;;;;4029652;29;19943;-58
2023/11/15 04:08:44;;;;;;;;;;;16.30;90.60;;;;;;4029384;29;19939;-58
2023/11/15 04:11:26;;;;;;;;;;;16.30;91.00;;;;;;4024982;29;19935;-58
2023/11/15 04:14:07;;;;;;;;;;;16.30;90.60;;;;;;4032666;29;19982;-51
2023/11/15 04:16:49;;;;;;;;;;;16.30;90.60;;;;;;4044284;29;19938;-55
2023/11/15 04:19:30;;;;;;;;;;;16.30;90.60;;;;;;4044331;29;19956;-60
2023/11/15 04:22:11;;;;;;;;;;;16.20;90.70;;;;;;4044245;29;20304;-58
2023/11/15 04:24:53;;;;;;;;;;;16.20;90.80;;;;;;4032485;29;19949;-57
2023/11/15 04:27:34;;;;;;;;;;;16.30;90.80;;;;;;4042355;29;19934;-56
2023/11/15 04:30:15;;;;;;;;;;;16.30;90.70;;;;;;4044188;29;19978;-57
2023/11/15 04:32:57;;;;;;;;;;;16.30;90.50;;;;;;4044648;29;19986;-52
2023/11/15 04:35:38;;;;;;;;;;;16.40;90.50;;;;;;4044169;29;19934;-54
2023/11/15 04:38:22;;;;;;;;;;;16.40;90.40;;;;;;4043925;29;24093;-54
2023/11/15 04:41:03;;;;;;;;;;;16.40;90.40;;;;;;4044167;29;19939;-50
2023/11/15 04:43:45;;;;;;;;;;;16.30;90.40;;;;;;4042863;29;19963;-52
2023/11/15 04:46:25;;;;;;;;;;;16.30;90.50;;;;;;4016881;29;19939;-50
2023/11/15 04:49:07;;;;;;;;;;;16.30;90.60;;;;;;4016509;29;19935;-54
2023/11/15 04:51:48;;;;;;;;;;;16.30;90.60;;;;;;4028019;29;19939;-52
2023/11/15 04:54:29;;;;;;;;;;;16.40;90.50;;;;;;4028466;29;19947;-53
2023/11/15 04:57:10;;;;;;;;;;;16.40;90.40;;;;;;4028344;29;20395;-50
2023/11/15 04:59:51;;;;;;;;;;;16.40;90.80;;;;;;4029602;29;20284;-54
2023/11/15 05:02:32;;;;;;;;;;;16.40;90.30;;;;;;4025480;29;19942;-52
2023/11/15 05:05:14;;;;;;;;;;;16.40;90.30;;;;;;4043272;29;19935;-53
2023/11/15 05:07:55;;;;;;;;;;;16.40;90.20;;;;;;4043324;29;20403;-53
2023/11/15 05:10:35;;;;;;;;;;;16.40;90.20;;;;;;4023530;29;19935;-53
2023/11/15 05:13:16;;;;;;;;;;;16.40;90.30;;;;;;4016315;29;19935;-52
2023/11/15 05:15:57;;;;;;;;;;;16.40;90.30;;;;;;4028392;29;20393;-51
2023/11/15 05:18:38;;;;;;;;;;;16.30;90.40;;;;;;4028533;29;19939;-51
2023/11/15 05:21:20;;;;;;;;;;;16.30;90.40;;;;;;4028157;29;19934;-50
2023/11/15 05:24:01;;;;;;;;;;;16.20;90.50;;;;;;4016865;29;20011;-51
2023/11/15 05:26:45;;;;;;;;;;;16.20;90.60;;;;;;4027483;29;19935;-58
2023/11/15 05:29:25;;;;;;;;;;;16.20;90.60;;;;;;4027584;29;20386;-58
2023/11/15 05:32:06;;;;;;;;;;;16.30;90.50;;;;;;4041996;29;20105;-58
2023/11/15 05:34:48;;;;;;;;;;;16.30;90.40;;;;;;4042111;29;19935;-58
2023/11/15 05:37:30;;;;;;;;;;;16.30;90.40;;;;;;4043111;29;20362;-58
2023/11/15 05:40:12;;;;;;;;;;;16.30;90.40;;;;;;4042829;29;19938;-58
2023/11/15 05:42:53;;;;;;;;;;;16.40;90.20;;;;;;4042921;29;19938;-58
2023/11/15 05:45:34;;;;;;;;;;;16.40;90.20;;;;;;4042569;29;20279;-51
2023/11/15 05:48:14;;;;;;;;;;;16.40;90.10;;;;;;4028506;29;19938;-58
2023/11/15 05:50:55;;;;;;;;;;;16.40;89.80;;;;;;4027723;29;20393;-57
2023/11/15 05:53:37;;;;;;;;;;;16.40;89.60;;;;;;4027212;29;20064;-58
2023/11/15 05:56:19;;;;;;;;;;;16.30;89.80;;;;;;4026380;29;19939;-58
2023/11/15 05:59:00;;;;;;;;;;;16.30;90.10;;;;;;4027117;29;20300;-53
2023/11/15 06:01:41;;;;;;;;;;;16.30;90.10;;;;;;4027202;29;19939;-50
2023/11/15 06:04:22;;;;;;;;;;;16.40;90.10;;;;;;4028067;29;20406;-52
2023/11/15 06:07:04;;;;;;;;;;;16.40;90.10;;;;;;4015527;29;19939;-52
2023/11/15 06:09:46;;;;;;;;;;;16.40;90.00;;;;;;4026674;29;19983;-53
2023/11/15 06:12:28;;;;;;;;;;;16.40;90.40;;;;;;4026682;29;19987;-54
2023/11/15 06:15:09;;;;;;;;;;;16.40;90.00;;;;;;4027023;29;19934;-50
2023/11/15 06:17:52;;;;;;;;;;;16.50;89.90;;;;;;4033014;29;19934;-51
2023/11/15 06:20:33;;;;;;;;;;;16.50;90.00;;;;;;4043100;29;19938;-50
2023/11/15 06:23:14;;;;;;;;;;;16.50;90.00;;;;;;4036687;29;20287;-50
2023/11/15 06:25:57;;;;;;;;;;;16.50;90.00;;;;;;4038950;29;19938;-50
2023/11/15 06:28:38;;;;;;;;;;;16.50;90.00;;;;;;4026531;29;20019;-50
2023/11/15 06:31:20;;;;;;;;;;;16.40;90.00;;;;;;4027043;29;19939;-50
2023/11/15 06:34:01;;;;;;;;;;;16.40;90.10;;;;;;4027002;29;19970;-50
2023/11/15 06:36:44;;;;;;;;;;;16.40;90.20;;;;;;4027660;29;19934;-50
2023/11/15 06:39:25;;;;;;;;;;;16.30;90.30;;;;;;4027321;29;19935;-50
2023/11/15 06:42:07;;;;;;;;;;;16.40;90.20;;;;;;4026805;29;19938;-50
2023/11/15 06:44:50;;;;;;;;;;;16.50;90.10;;;;;;4027127;29;20018;-50
2023/11/15 06:47:30;;;;;;;;;;;16.50;89.90;;;;;;4026951;29;19935;-54
2023/11/15 06:50:12;;;;;;;;;;;16.50;89.70;;;;;;4038443;29;19938;-50
2023/11/15 06:52:53;;;;;;;;;;;16.50;89.70;;;;;;4040694;29;19939;-51
2023/11/15 06:55:34;;;;;;;;;;;16.50;89.70;;;;;;4040741;29;20095;-50
2023/11/15 06:58:19;;;;;;;;;;;16.50;89.90;;;;;;4041742;29;19934;-54
2023/11/15 07:01:00;;;;;;;;;;;16.40;90.00;;;;;;4035080;29;20452;-52
2023/11/15 07:03:43;;;;;;;;;;;16.40;90.10;;;;;;4026822;29;20386;-50
2023/11/15 07:06:24;;;;;;;;;;;16.30;90.50;;;;;;4015321;29;19979;-50
2023/11/15 07:09:05;;;;;;;;;;;16.30;90.20;;;;;;4026545;29;20017;-50
2023/11/15 07:11:46;;;;;;;;;;;16.20;90.10;;;;;;4025708;29;19935;-52
2023/11/15 07:14:30;;;;;;;;;;;16.20;90.10;;;;;;4026979;29;19975;-51
2023/11/15 07:17:12;;;;;;;;;;;16.30;90.20;;;;;;4031171;29;19934;-50
2023/11/15 07:19:53;;;;;;;;;;;16.30;90.10;;;;;;4026370;29;19983;-49
2023/11/15 07:22:35;;;;;;;;;;;16.40;90.10;;;;;;4026470;29;19950;-49
2023/11/15 07:25:18;;;;;;;;;;;16.50;90.00;;;;;;4026554;29;20392;-58
2023/11/15 07:27:59;;;;;;;;;;;16.50;89.90;;;;;;4028475;29;20416;-52
2023/11/15 07:30:42;;;;;;;;;;;16.50;89.60;;;;;;4029361;29;19935;-55
2023/11/15 07:33:22;;;;;;;;;;;16.50;89.40;;;;;;4033334;29;19974;-56
2023/11/15 07:36:04;;;;;;;;;;;16.50;90.00;;;;;;4035455;29;19935;-55
2023/11/15 07:38:45;;;;;;;;;;;16.60;88.80;;;;;;4017738;29;20390;-55
2023/11/15 07:41:26;;;;;;;;;;;16.60;88.60;;;;;;4035548;29;19938;-56
2023/11/15 07:44:07;;;;;;;;;;;16.60;88.60;;;;;;4029116;29;19954;-52
2023/11/15 07:46:50;;;;;;;;;;;16.70;88.40;;;;;;4033709;29;20039;-57
2023/11/15 07:49:31;;;;;;;;;;;16.60;88.10;;;;;;4044841;29;20029;-54
2023/11/15 07:52:12;;;;;;;;;;;16.70;88.10;;;;;;4039490;29;19979;-57
2023/11/15 07:54:52;;;;;;;;;;;16.70;88.00;;;;;;4017788;29;20402;-55
2023/11/15 07:57:33;;;;;;;;;;;16.60;88.00;;;;;;4026410;29;19935;-52
2023/11/15 08:00:15;;;;;;;;;;;16.60;88.00;;;;;;4031926;29;19987;-52
2023/11/15 08:02:58;;;;;;;;;;;16.50;88.00;;;;;;4032543;29;19935;-52
2023/11/15 08:05:39;;;;;;;;;;;16.50;88.20;;;;;;4029782;29;19970;-56
2023/11/15 08:08:19;;;;;;;;;;;16.50;88.20;;;;;;4044011;29;19983;-54
2023/11/15 08:11:03;;;;;;;;;;;16.40;88.10;;;;;;4030862;29;20367;-53
2023/11/15 08:13:44;;;;;;;;;;;16.30;87.90;;;;;;4028388;29;20015;-52
2023/11/15 08:16:27;;;;;;;;;;;16.30;87.90;;;;;;4029012;29;20055;-53
2023/11/15 08:19:09;;;;;;;;;;;16.20;87.80;;;;;;4028993;29;19935;-53
2023/11/15 08:21:50;;;;;;;;;;;16.20;87.90;;;;;;4028590;29;19987;-55
2023/11/15 08:24:30;;;;;;;;;;;16.20;88.50;;;;;;4028947;29;20395;-52
2023/11/15 08:27:12;;;;;;;;;;;16.30;87.30;;;;;;4043994;29;20400;-55
2023/11/15 08:29:53;;;;;;;;;;;16.30;87.10;;;;;;4044051;29;20002;-55
2023/11/15 08:32:35;;;;;;;;;;;16.20;86.70;;;;;;4028770;29;19939;-53
2023/11/15 08:35:17;;;;;;;;;;;16.20;86.70;;;;;;4035346;29;19951;-54
2023/11/15 08:37:58;;;;;;;;;;;16.20;86.60;;;;;;4028340;29;19976;-48
2023/11/15 08:40:39;;;;;;;;;;;16.10;86.50;;;;;;4034632;29;20620;-50
2023/11/15 08:43:20;;;;;;;;;;;16.10;86.60;;;;;;4031899;29;19938;-50
2023/11/15 08:46:02;;;;;;;;;;;16.10;86.80;;;;;;4028972;29;20415;-53
2023/11/15 08:48:43;;;;;;;;;;;16.00;87.80;;;;;;4028799;29;20644;-50
2023/11/15 08:51:28;;;;;;;;;;;16.00;87.30;;;;;;4023416;29;19934;-51
2023/11/15 08:54:10;;;;;;;;;;;16.00;87.60;;;;;;4028577;29;19939;-52
2023/11/15 08:56:51;;;;;;;;;;;15.90;87.70;;;;;;4028180;29;19995;-51
2023/11/15 08:59:32;;;;;;;;;;;15.90;88.00;;;;;;4027431;29;19935;-50
2023/11/15 09:02:15;;;;;;;;;;;15.90;88.30;;;;;;4037443;29;19934;-51
2023/11/15 09:04:56;;;;;;;;;;;15.90;88.50;;;;;;4038905;29;19938;-50
2023/11/15 09:07:39;;;;;;;;;;;15.80;88.70;;;;;;4043142;29;20718;-52
2023/11/15 09:10:22;;;;;;;;;;;15.80;89.10;;;;;;4043426;29;20067;-52
2023/11/15 09:13:08;;;;;;;;;;;15.80;89.20;;;;;;4043705;29;19951;-53
2023/11/15 09:15:50;;;;;;;;;;;15.70;89.30;;;;;;4043761;29;19978;-52
2023/11/15 09:18:31;;;;;;;;;;;15.70;89.50;;;;;;4039094;29;21457;-52
2023/11/15 09:21:12;;;;;;;;;;;15.60;89.60;;;;;;4009245;29;19935;-51
2023/11/15 09:23:55;;;;;;;;;;;15.60;89.70;;;;;;4025655;29;20424;-52
2023/11/15 09:26:37;;;;;;;;;;;15.60;90.00;;;;;;4017786;29;19935;-53
2023/11/15 09:29:20;;;;;;;;;;;15.60;90.10;;;;;;4026569;29;19960;-53
2023/11/15 09:32:01;;;;;;;;;;;15.60;90.10;;;;;;4027021;29;20299;-52
2023/11/15 09:34:42;;;;;;;;;;;15.70;90.00;;;;;;4006359;29;19935;-52
2023/11/15 09:37:26;;;;;;;;;;;15.80;89.90;;;;;;4011220;29;20112;-53
2023/11/15 09:40:11;;;;;;;;;;;15.80;89.60;;;;;;4007440;29;20483;-54
2023/11/15 09:42:55;;;;;;;;;;;15.90;89.40;;;;;;4021078;29;19939;-51
2023/11/15 09:45:41;;;;;;;;;;;15.90;89.30;;;;;;4014153;29;20308;-56
2023/11/15 09:48:23;;;;;;;;;;;15.90;89.30;;;;;;4024710;29;19934;-56
2023/11/15 09:51:05;;;;;;;;;;;15.90;89.50;;;;;;4016207;29;19942;-57
2023/11/15 09:53:46;;;;;;;;;;;15.90;89.50;;;;;;4025725;29;20284;-56
2023/11/15 09:56:30;;;;;;;;;;;16.00;90.00;;;;;;4025134;29;19935;-55
2023/11/15 09:59:15;;;;;;;;;;;16.10;89.00;;;;;;4015349;29;19954;-52
2023/11/15 10:01:57;;;;;;;;;;;16.20;89.70;;;;;;3993091;29;19975;-53
2023/11/15 10:04:42;;;;;;;;;;;16.20;88.70;;;;;;4029579;29;19959;-53
2023/11/15 10:07:25;;;;;;;;;;;16.20;88.50;;;;;;4037677;29;20319;-52
2023/11/15 10:10:18;;;;;;;;;;;16.20;88.50;;;;;;4031581;29;20012;-51
2023/11/15 10:13:09;;;;;;;;;;;16.20;88.60;;;;;;4030786;29;19983;-52
2023/11/15 10:15:54;;;;;;;;;;;16.20;88.50;;;;;;4027784;29;19938;-55
2023/11/15 10:18:35;;;;;;;;;;;16.20;88.40;;;;;;3988080;29;20312;-54
2023/11/15 10:21:19;;;;;;;;;;;16.30;88.60;;;;;;4029018;29;19935;-56
2023/11/15 10:24:10;;;;;;;;;;;16.30;88.50;;;;;;4023337;29;20028;-55
2023/11/15 10:26:51;;;;;;;;;;;16.30;88.50;;;;;;4011713;29;20413;-53
2023/11/15 10:29:37;;;;;;;;;;;16.40;88.30;;;;;;4022426;29;20296;-55
2023/11/15 10:32:23;;;;;;;;;;;16.40;88.10;;;;;;4023253;29;19965;-55
2023/11/15 10:35:06;;;;;;;;;;;16.40;87.90;;;;;;3992949;29;20399;-52
2023/11/15 10:37:48;;;;;;;;;;;16.50;87.80;;;;;;3991126;29;20482;-63
2023/11/15 10:40:30;;;;;;;;;;;16.50;88.70;;;;;;3995027;29;19993;-54
2023/11/15 10:43:12;;;;;;;;;;;16.40;87.80;;;;;;3993704;29;20561;-54
2023/11/15 10:45:55;;;;;;;;;;;16.40;87.90;;;;;;3993470;29;19957;-51
2023/11/15 10:48:39;;;;;;;;;;;16.40;87.90;;;;;;3994905;29;20445;-52
2023/11/15 10:51:21;;;;;;;;;;;16.30;88.10;;;;;;4009499;29;20000;-52
2023/11/15 10:54:03;;;;;;;;;;;16.30;88.40;;;;;;4007936;29;19999;-54
2023/11/15 10:56:44;;;;;;;;;;;16.30;88.60;;;;;;4000498;29;19939;-52
2023/11/15 10:59:26;;;;;;;;;;;16.20;88.70;;;;;;4015787;29;19939;-52
2023/11/15 11:02:09;;;;;;;;;;;16.20;88.80;;;;;;4010060;29;19936;-52
2023/11/15 11:04:53;;;;;;;;;;;16.10;89.00;;;;;;4010541;29;19939;-52
2023/11/15 11:07:40;;;;;;;;;;;16.10;89.10;;;;;;3999726;29;20032;-54
2023/11/15 11:10:26;;;;;;;;;;;16.10;89.30;;;;;;3995483;29;19988;-52
2023/11/15 11:13:18;;;;;;;;;;;16.00;89.40;;;;;;3997631;29;19935;-53
2023/11/15 11:16:23;;;;;;;;;;;16.00;89.60;;;;;;3997024;29;20080;-51
2023/11/15 11:19:16;;;;;;;;;;;15.90;89.80;;;;;;4004771;29;19939;-55
2023/11/15 11:22:04;;;;;;;;;;;15.90;90.00;;;;;;4015004;29;19939;-55
2023/11/15 11:25:03;;;;;;;;;;;15.80;90.00;;;;;;3998434;29;19943;-52
2023/11/15 11:27:55;;;;;;;;;;;15.80;90.10;;;;;;4000654;29;19935;-55
2023/11/15 11:30:36;;;;;;;;;;;15.80;90.20;;;;;;3999644;29;20336;-55
2023/11/15 11:33:19;;;;;;;;;;;15.70;90.30;;;;;;4014193;29;19935;-55
2023/11/15 11:36:21;;;;;;;;;;;15.70;90.30;;;;;;4029209;29;19944;-52
2023/11/15 11:39:02;;;;;;;;;;;15.60;90.40;;;;;;4028338;29;19935;-51
2023/11/15 11:41:43;;;;;;;;;;;15.70;90.50;;;;;;4029193;29;19935;-54
2023/11/15 11:44:25;;;;;;;;;;;15.60;90.50;;;;;;4029021;29;19956;-54
2023/11/15 11:47:11;;;;;;;;;;;15.60;90.60;;;;;;4028901;29;19996;-52
2023/11/15 11:49:53;;;;;;;;;;;15.60;90.60;;;;;;4039927;29;19938;-56
2023/11/15 11:52:36;;;;;;;;;;;15.50;90.70;;;;;;4030475;29;19938;-54
2023/11/15 11:55:17;;;;;;;;;;;15.50;90.70;;;;;;4030327;29;19939;-55
2023/11/15 11:58:02;;;;;;;;;;;15.50;90.80;;;;;;4028797;29;19935;-51
2023/11/15 12:00:43;;;;;;;;;;;15.40;90.80;;;;;;4029229;29;19970;-51
2023/11/15 12:03:25;;;;;;;;;;;15.40;90.80;;;;;;4028907;29;19935;-55
2023/11/15 12:06:08;;;;;;;;;;;15.40;90.80;;;;;;4043324;29;19982;-54
2023/11/15 12:08:51;;;;;;;;;;;15.40;90.90;;;;;;4044495;29;19938;-54
2023/11/15 12:11:32;;;;;;;;;;;15.30;90.90;;;;;;4028924;29;20105;-54
2023/11/15 12:14:13;;;;;;;;;;;15.30;90.90;;;;;;4029069;29;19935;-53
2023/11/15 12:16:54;;;;;;;;;;;15.30;91.00;;;;;;4028720;29;20410;-54
2023/11/15 12:19:42;;;;;;;;;;;15.30;91.00;;;;;;4038347;29;19939;-51
2023/11/15 12:22:23;;;;;;;;;;;15.30;91.10;;;;;;4044510;29;19935;-53
2023/11/15 12:25:08;;;;;;;;;;;15.30;91.10;;;;;;4030251;29;19935;-57
2023/11/15 12:27:50;;;;;;;;;;;15.30;91.60;;;;;;4028287;29;20096;-53
2023/11/15 12:30:32;;;;;;;;;;;15.30;91.30;;;;;;4028902;29;19935;-56
2023/11/15 12:33:13;;;;;;;;;;;15.20;91.70;;;;;;4029921;29;19966;-53
2023/11/15 12:35:54;;;;;;;;;;;15.20;91.30;;;;;;4031452;29;20391;-54
2023/11/15 12:38:35;;;;;;;;;;;15.20;91.30;;;;;;4040525;29;19938;-52
2023/11/15 12:41:17;;;;;;;;;;;15.20;91.70;;;;;;4028424;29;19935;-55
2023/11/15 12:44:02;;;;;;;;;;;15.20;91.30;;;;;;4028319;29;20359;-52
2023/11/15 12:46:43;;;;;;;;;;;15.10;91.30;;;;;;4028518;29;20461;-52
2023/11/15 12:49:24;;;;;;;;;;;15.10;91.40;;;;;;4035357;29;19935;-52
2023/11/15 12:52:05;;;;;;;;;;;15.10;91.40;;;;;;4035060;29;19938;-53
2023/11/15 12:54:55;;;;;;;;;;;15.10;91.40;;;;;;4027984;29;19983;-51
2023/11/15 12:57:52;;;;;;;;;;;15.10;91.40;;;;;;4028986;29;19951;-51
2023/11/15 13:00:34;;;;;;;;;;;15.10;91.80;;;;;;4027874;29;19935;-51
2023/11/15 13:03:19;;;;;;;;;;;15.10;91.60;;;;;;4027893;29;19956;-51
2023/11/15 13:06:09;;;;;;;;;;;15.10;91.60;;;;;;4033269;29;20006;-52
2023/11/15 13:08:52;;;;;;;;;;;15.10;91.70;;;;;;4043106;29;21344;-52
2023/11/15 13:11:35;;;;;;;;;;;15.00;91.70;;;;;;4036519;29;20433;-51
2023/11/15 13:14:22;;;;;;;;;;;15.00;91.70;;;;;;4016021;29;20451;-56
2023/11/15 13:17:04;;;;;;;;;;;15.00;91.80;;;;;;4027998;29;19938;-55
2023/11/15 13:19:45;;;;;;;;;;;15.00;91.80;;;;;;4030910;29;19938;-55
2023/11/15 13:22:26;;;;;;;;;;;15.00;91.80;;;;;;4027611;29;20303;-57
2023/11/15 13:25:08;;;;;;;;;;;15.00;91.90;;;;;;4027453;29;20372;-57
2023/11/15 13:27:49;;;;;;;;;;;15.00;91.90;;;;;;4027497;29;20300;-56
2023/11/15 13:30:30;;;;;;;;;;;15.00;92.30;;;;;;4027747;29;19983;-56
2023/11/15 13:33:13;;;;;;;;;;;15.00;91.90;;;;;;4034277;29;20019;-55
2023/11/15 13:35:55;;;;;;;;;;;15.00;91.90;;;;;;4028392;29;19955;-52
2023/11/15 13:38:36;;;;;;;;;;;15.00;91.90;;;;;;4015882;29;20075;-55
2023/11/15 13:41:22;;;;;;;;;;;15.00;92.00;;;;;;4027895;29;20778;-52
2023/11/15 13:44:03;;;;;;;;;;;15.00;92.00;;;;;;4027701;29;20387;-55
2023/11/15 13:46:45;;;;;;;;;;;15.10;92.00;;;;;;4034017;29;19935;-54
2023/11/15 13:49:27;;;;;;;;;;;15.10;92.00;;;;;;4035352;29;19934;-53
2023/11/15 13:52:08;;;;;;;;;;;15.10;92.00;;;;;;4038587;29;19987;-55
2023/11/15 13:54:49;;;;;;;;;;;15.00;91.90;;;;;;4027193;29;19954;-56
2023/11/15 13:57:30;;;;;;;;;;;15.00;91.90;;;;;;4034704;29;19935;-53
2023/11/15 14:00:13;;;;;;;;;;;15.00;91.90;;;;;;4042556;29;20032;-53
2023/11/15 14:02:55;;;;;;;;;;;15.00;92.00;;;;;;4042863;29;20019;-51
2023/11/15 14:05:40;;;;;;;;;;;15.00;92.00;;;;;;4038862;29;20302;-54
2023/11/15 14:08:22;;;;;;;;;;;15.00;92.00;;;;;;4027073;29;19939;-52
2023/11/15 14:11:06;;;;;;;;;;;15.10;92.00;;;;;;4027598;29;19935;-52
2023/11/15 14:13:48;;;;;;;;;;;15.10;92.40;;;;;;4033615;29;19935;-51
2023/11/15 14:16:28;;;;;;;;;;;15.00;92.10;;;;;;4030628;29;19938;-55
2023/11/15 14:19:09;;;;;;;;;;;15.00;92.00;;;;;;4039678;29;19939;-54
2023/11/15 14:21:52;;;;;;;;;;;15.00;92.00;;;;;;4042646;29;19934;-51
2023/11/15 14:24:33;;;;;;;;;;;15.00;92.10;;;;;;4023703;29;19934;-53
2023/11/15 14:27:15;;;;;;;;;;;15.00;92.10;;;;;;4027173;29;20375;-52
2023/11/15 14:29:57;;;;;;;;;;;15.00;92.10;;;;;;4027552;29;19944;-52
2023/11/15 14:32:37;;;;;;;;;;;15.00;92.10;;;;;;4026861;29;19935;-51
2023/11/15 14:35:18;;;;;;;;;;;15.00;92.00;;;;;;4026929;29;19935;-57
2023/11/15 14:38:07;;;;;;;;;;;15.00;92.10;;;;;;4035046;29;19950;-55
2023/11/15 14:40:47;;;;;;;;;;;15.00;92.10;;;;;;4030112;29;19938;-55
2023/11/15 14:43:28;;;;;;;;;;;15.00;92.10;;;;;;4036377;29;19935;-53
2023/11/15 14:46:09;;;;;;;;;;;15.00;92.10;;;;;;4033417;29;20084;-55
2023/11/15 14:48:51;;;;;;;;;;;15.00;92.10;;;;;;4030070;29;20070;-52
2023/11/15 14:51:32;;;;;;;;;;;15.00;92.10;;;;;;4027861;29;20002;-53
2023/11/15 14:54:20;;;;;;;;;;;15.00;92.10;;;;;;4017755;29;20299;-55
2023/11/15 14:57:04;;;;;;;;;;;15.00;92.10;;;;;;4039873;29;19935;-52
2023/11/15 14:59:46;;;;;;;;;;;15.00;92.10;;;;;;4034897;29;20323;-53
2023/11/15 15:02:27;;;;;;;;;;;14.90;92.10;;;;;;4029630;29;20035;-52
2023/11/15 15:05:09;;;;;;;;;;;14.90;92.10;;;;;;4029183;29;19935;-54
2023/11/15 15:07:51;;;;;;;;;;;14.90;92.10;;;;;;4024588;29;19983;-52
2023/11/15 15:10:33;;;;;;;;;;;14.90;92.10;;;;;;4033986;29;19939;-54
2023/11/15 15:13:15;;;;;;;;;;;14.90;92.20;;;;;;4029011;29;20072;-54
2023/11/15 15:15:56;;;;;;;;;;;14.90;92.20;;;;;;4029300;29;19983;-52
2023/11/15 15:18:38;;;;;;;;;;;14.90;92.20;;;;;;4017720;29;20288;-52
2023/11/15 15:21:19;;;;;;;;;;;14.90;92.20;;;;;;4026370;29;19939;-55
2023/11/15 15:24:00;;;;;;;;;;;14.90;92.60;;;;;;4018617;29;20439;-52
2023/11/15 15:26:42;;;;;;;;;;;14.90;92.20;;;;;;4029446;29;19938;-53
2023/11/15 15:29:23;;;;;;;;;;;14.90;92.20;;;;;;4029635;29;19934;-52
2023/11/15 15:32:08;;;;;;;;;;;14.80;92.20;;;;;;4033095;29;19939;-51
2023/11/15 15:34:51;;;;;;;;;;;14.80;92.20;;;;;;4029084;29;19983;-52
2023/11/15 15:37:32;;;;;;;;;;;14.80;92.60;;;;;;4028625;29;20091;-52
2023/11/15 15:40:16;;;;;;;;;;;14.80;92.20;;;;;;4029065;29;19943;-55
2023/11/15 15:43:01;;;;;;;;;;;14.80;92.40;;;;;;4028313;29;20365;-52